Terminal Aerodrome Forecast
Issued by NWS

Home | Current Version | Previous Version | Text Only | Print | Product List | Glossary On
Versions: 1 2 3 4 5 6 7 8 9 10 11 12 13 14 15 16 17 18 19
000
FTUS43 KIND 210200 AAA
TAFLAF
TAF AMD
KLAF 210215Z 2102/2124 VRB03KT P6SM OVC060
     FM210900 VRB03KT 5SM BR OVC030
     FM211600 14006KT P6SM SCT025 OVC050
      AMD LTD TO CLD VIS AND WIND 2102/2114=

USA.gov is the U.S. government's official web portal to all federal, state and local government web resources and services.